createdAt,value
2022-12-20T00:02:28.744Z,42.74
2022-12-20T00:05:13.862Z,42.59
2022-12-20T00:07:59.307Z,42.70
2022-12-20T00:10:45.726Z,42.68
2022-12-20T00:13:31.403Z,42.72
2022-12-20T00:16:20.075Z,42.75
2022-12-20T00:19:07.176Z,42.73
2022-12-20T00:21:52.422Z,42.82
2022-12-20T00:24:37.869Z,42.87
2022-12-20T00:27:23.205Z,42.82
2022-12-20T00:30:08.834Z,42.73
2022-12-20T00:32:54.141Z,42.85
2022-12-20T00:35:43.179Z,42.73
2022-12-20T00:38:28.947Z,42.81
2022-12-20T00:41:21.015Z,42.82
2022-12-20T00:44:06.477Z,42.88
2022-12-20T00:46:51.709Z,42.61
2022-12-20T00:49:37.019Z,42.81
2022-12-20T00:52:22.272Z,42.91
2022-12-20T00:55:07.682Z,42.93
2022-12-20T00:57:53.454Z,42.85
2022-12-20T01:00:39.592Z,42.92
2022-12-20T01:03:26.406Z,42.94
2022-12-20T01:06:12.092Z,42.95
2022-12-20T01:08:58.512Z,42.93
2022-12-20T01:11:43.766Z,42.95
2022-12-20T01:22:34.407Z,42.98
2022-12-20T01:25:17.176Z,43.00
2022-12-20T01:28:02.521Z,42.98
2022-12-20T01:30:47.748Z,43.03
2022-12-20T01:33:33.345Z,43.02
2022-12-20T01:36:27.256Z,42.99
2022-12-20T01:39:16.143Z,42.92
2022-12-20T01:42:01.856Z,43.09
2022-12-20T01:44:56.472Z,43.08
2022-12-20T01:47:42.015Z,42.96
2022-12-20T01:50:27.394Z,43.04
2022-12-20T01:53:12.886Z,42.98
2022-12-20T01:56:03.891Z,43.06
2022-12-20T01:58:52.763Z,43.03
2022-12-20T02:01:38.703Z,43.00
2022-12-20T02:04:24.014Z,42.99
2022-12-20T02:07:15.020Z,43.08
2022-12-20T02:10:02.028Z,42.90
2022-12-20T02:12:48.676Z,43.01
2022-12-20T02:15:54.017Z,43.07
2022-12-20T02:18:49.642Z,43.01
2022-12-20T02:21:38.720Z,43.07
2022-12-20T02:24:44.006Z,43.07
2022-12-20T02:27:38.706Z,43.01
2022-12-20T02:30:28.794Z,43.07
2022-12-20T02:33:14.860Z,43.11
2022-12-20T02:36:00.126Z,43.02
2022-12-20T02:38:45.756Z,42.94
2022-12-20T02:41:39.006Z,43.01
2022-12-20T02:44:47.061Z,43.09
2022-12-20T02:47:46.745Z,43.12
2022-12-20T02:50:40.398Z,43.10
2022-12-20T02:53:26.526Z,43.17
2022-12-20T02:56:27.644Z,43.10
2022-12-20T02:59:22.075Z,43.13
2022-12-20T03:02:08.624Z,43.22
2022-12-20T03:04:56.849Z,43.10
2022-12-20T03:07:42.503Z,43.20
2022-12-20T03:10:27.816Z,43.15
2022-12-20T03:13:13.646Z,43.07
2022-12-20T03:16:07.025Z,43.19
2022-12-20T03:18:52.616Z,43.09
2022-12-20T03:21:37.865Z,43.19
2022-12-20T03:24:23.307Z,43.30
2022-12-20T03:27:09.647Z,43.41
2022-12-20T03:29:55.708Z,43.60
2022-12-20T03:32:41.243Z,43.67
2022-12-20T03:35:27.405Z,43.76
2022-12-20T03:38:12.909Z,43.76
2022-12-20T03:40:58.244Z,43.75
2022-12-20T03:43:43.569Z,43.83
2022-12-20T03:46:29.130Z,43.89
2022-12-20T03:49:14.776Z,43.93
2022-12-20T03:52:07.155Z,44.08
2022-12-20T03:54:52.561Z,43.97
2022-12-20T03:57:40.262Z,44.07
2022-12-20T04:00:36.646Z,44.11
2022-12-20T04:03:40.791Z,44.20
2022-12-20T04:06:25.947Z,44.21
2022-12-20T04:09:11.385Z,44.41
2022-12-20T04:12:04.988Z,44.37
2022-12-20T04:14:52.331Z,44.40
2022-12-20T04:17:37.572Z,44.54
2022-12-20T04:20:22.879Z,44.63
2022-12-20T04:23:17.196Z,44.21
2022-12-20T04:26:05.488Z,43.76
2022-12-20T04:28:52.492Z,43.63
2022-12-20T04:31:38.299Z,43.48
2022-12-20T04:34:23.900Z,43.39
2022-12-20T04:37:09.131Z,43.76
2022-12-20T04:40:06.082Z,43.98
2022-12-20T04:43:12.642Z,44.25
2022-12-20T04:45:57.974Z,44.25
2022-12-20T04:49:00.369Z,44.24
2022-12-20T04:51:47.073Z,44.51
2022-12-20T04:54:34.769Z,44.67
2022-12-20T04:57:31.116Z,44.92
2022-12-20T05:00:18.114Z,45.70
2022-12-20T05:03:09.705Z,45.71
2022-12-20T05:05:55.344Z,45.99
2022-12-20T05:08:42.214Z,46.09
2022-12-20T05:11:27.775Z,46.03
2022-12-20T05:14:13.667Z,45.95
2022-12-20T05:16:59.067Z,45.88
2022-12-20T05:19:46.438Z,45.62
2022-12-20T05:22:52.362Z,45.58
2022-12-20T05:26:06.269Z,45.58
2022-12-20T05:28:52.041Z,45.30
2022-12-20T05:31:37.861Z,45.23
2022-12-20T05:34:23.369Z,45.08
2022-12-20T05:37:11.818Z,44.88
2022-12-20T05:39:59.151Z,43.96
2022-12-20T05:51:22.009Z,45.13
2022-12-20T05:54:15.794Z,46.30
2022-12-20T05:57:08.626Z,47.16
2022-12-20T05:59:56.875Z,46.94
2022-12-20T06:02:43.933Z,46.29
2022-12-20T06:05:30.085Z,46.45
2022-12-20T06:08:18.964Z,44.87
2022-12-20T06:11:05.234Z,45.00
2022-12-20T06:14:00.077Z,44.93
2022-12-20T06:16:46.755Z,44.83
2022-12-20T06:19:34.505Z,44.92
2022-12-20T06:22:21.435Z,44.98
2022-12-20T06:25:12.510Z,44.90
2022-12-20T06:27:59.166Z,44.87
2022-12-20T06:30:44.412Z,44.87
2022-12-20T06:33:43.459Z,44.95
2022-12-20T06:36:29.620Z,44.79
2022-12-20T06:39:15.376Z,44.95
2022-12-20T06:42:09.726Z,44.85
2022-12-20T06:44:57.684Z,44.91
2022-12-20T06:47:42.958Z,44.87
2022-12-20T06:50:28.249Z,45.05
2022-12-20T06:53:15.164Z,44.95
2022-12-20T06:56:00.352Z,45.00
2022-12-20T06:58:47.313Z,45.00
2022-12-20T07:01:32.777Z,44.99
2022-12-20T07:04:18.637Z,45.05
2022-12-20T07:07:04.550Z,45.11
2022-12-20T07:09:49.852Z,45.19
2022-12-20T07:12:35.286Z,45.22
2022-12-20T07:15:22.249Z,45.14
2022-12-20T07:18:07.544Z,45.28
2022-12-20T07:20:53.048Z,45.31
2022-12-20T07:23:38.687Z,45.33
2022-12-20T07:26:24.243Z,45.06
2022-12-20T07:29:15.178Z,45.19
2022-12-20T07:32:01.311Z,45.21
2022-12-20T07:34:46.365Z,45.14
2022-12-20T07:37:31.844Z,45.04
2022-12-20T07:40:17.326Z,45.11
2022-12-20T07:43:02.876Z,45.06
2022-12-20T07:45:48.359Z,45.05
2022-12-20T07:48:35.171Z,45.14
2022-12-20T07:51:34.380Z,45.13
2022-12-20T07:54:26.233Z,44.93
2022-12-20T07:57:17.572Z,45.10
2022-12-20T08:00:04.811Z,45.11
2022-12-20T08:03:06.389Z,44.98
2022-12-20T08:05:56.385Z,44.99
2022-12-20T08:08:47.714Z,44.90
2022-12-20T08:11:36.151Z,45.00
2022-12-20T08:14:22.139Z,45.03
2022-12-20T08:17:07.670Z,44.86
2022-12-20T08:19:53.425Z,44.90
2022-12-20T08:22:38.621Z,44.88
2022-12-20T08:25:24.367Z,44.98
2022-12-20T08:28:10.244Z,44.75
2022-12-20T08:31:07.292Z,44.83
2022-12-20T08:33:55.136Z,44.83
2022-12-20T08:36:41.069Z,44.84
2022-12-20T08:39:26.645Z,44.88
2022-12-20T08:42:12.455Z,44.76
2022-12-20T08:44:57.809Z,44.79
2022-12-20T08:47:43.012Z,44.77
2022-12-20T08:50:29.310Z,44.95
2022-12-20T08:53:14.982Z,44.73
2022-12-20T08:56:12.087Z,44.73
2022-12-20T08:58:57.673Z,44.71
2022-12-20T09:01:43.362Z,44.66
2022-12-20T09:04:28.585Z,44.69
2022-12-20T09:07:13.999Z,44.70
2022-12-20T09:09:59.242Z,44.68
2022-12-20T09:12:44.542Z,44.67
2022-12-20T09:15:29.875Z,44.54
2022-12-20T09:18:15.318Z,44.49
2022-12-20T09:21:05.109Z,44.54
2022-12-20T09:23:51.497Z,44.56
2022-12-20T09:26:37.054Z,44.48
2022-12-20T09:29:28.220Z,44.48
2022-12-20T09:32:17.580Z,44.48
2022-12-20T09:35:03.443Z,44.38
2022-12-20T09:37:48.974Z,44.43
2022-12-20T09:40:37.591Z,44.41
2022-12-20T09:43:24.237Z,44.34
2022-12-20T09:46:14.803Z,44.43
2022-12-20T09:49:00.546Z,44.37
2022-12-20T09:52:04.757Z,44.20
2022-12-20T09:55:02.044Z,44.34
2022-12-20T09:58:03.599Z,44.23
2022-12-20T10:00:54.254Z,44.29
2022-12-20T10:03:40.267Z,44.23
2022-12-20T10:06:34.860Z,44.27
2022-12-20T10:09:29.821Z,44.18
2022-12-20T10:12:30.237Z,44.25
2022-12-20T10:15:33.844Z,44.17
2022-12-20T10:18:53.441Z,44.16
2022-12-20T10:21:56.497Z,44.61
2022-12-20T10:24:48.181Z,44.25
2022-12-20T10:27:37.952Z,44.07
2022-12-20T10:30:26.672Z,44.04
2022-12-20T10:33:20.085Z,43.96
2022-12-20T10:36:26.999Z,44.11
2022-12-20T10:39:12.791Z,44.08
2022-12-20T10:41:58.094Z,44.14
2022-12-20T10:44:44.165Z,44.02
2022-12-20T10:47:41.968Z,44.00
2022-12-20T10:50:27.545Z,43.92
2022-12-20T10:53:25.209Z,43.95
2022-12-20T10:56:27.520Z,43.95
2022-12-20T10:59:15.846Z,43.78
2022-12-20T11:02:16.642Z,43.65
2022-12-20T11:05:09.696Z,43.77
2022-12-20T11:11:22.001Z,43.76
2022-12-20T11:14:15.196Z,43.80
2022-12-20T11:17:05.822Z,43.54
2022-12-20T11:19:54.643Z,43.57
2022-12-20T11:23:12.055Z,43.72
2022-12-20T11:26:19.397Z,43.58
2022-12-20T11:29:35.759Z,43.64
2022-12-20T11:32:46.483Z,43.57
2022-12-20T11:35:40.496Z,43.62
2022-12-20T11:38:31.898Z,43.50
2022-12-20T11:41:30.776Z,43.54
2022-12-20T11:44:25.763Z,43.61
2022-12-20T11:47:39.264Z,43.52
2022-12-20T11:51:01.876Z,43.52
2022-12-20T11:54:09.320Z,43.43
2022-12-20T11:57:04.515Z,43.55
2022-12-20T12:00:02.647Z,43.46
2022-12-20T12:03:02.199Z,43.57
2022-12-20T12:05:53.867Z,43.41
2022-12-20T12:08:45.391Z,43.42
2022-12-20T12:15:00.573Z,43.46
2022-12-20T12:18:20.140Z,43.48
2022-12-20T12:21:09.363Z,43.42
2022-12-20T12:24:19.376Z,43.36
2022-12-20T12:27:08.009Z,43.29
2022-12-20T12:29:58.592Z,43.32
2022-12-20T12:32:57.477Z,43.31
2022-12-20T12:36:02.683Z,43.34
2022-12-20T12:39:05.681Z,43.34
2022-12-20T12:42:20.355Z,43.29
2022-12-20T12:45:15.600Z,43.29
2022-12-20T12:48:08.380Z,43.42
2022-12-20T12:50:57.388Z,43.36
2022-12-20T12:53:51.439Z,43.40
2022-12-20T12:56:44.683Z,43.35
2022-12-20T12:59:34.067Z,43.24
2022-12-20T13:02:26.358Z,43.20
2022-12-20T13:05:17.299Z,43.25
2022-12-20T13:08:16.882Z,43.25
2022-12-20T13:11:02.910Z,43.16
2022-12-20T13:13:48.183Z,43.21
2022-12-20T13:17:10.168Z,43.18
2022-12-20T13:19:39.632Z,43.12
2022-12-20T13:22:26.432Z,43.20
2022-12-20T13:25:31.131Z,43.13
2022-12-20T13:28:16.954Z,43.19
2022-12-20T13:31:02.581Z,43.11
2022-12-20T13:33:50.235Z,43.44
2022-12-20T13:36:37.887Z,43.19
2022-12-20T13:39:23.049Z,43.07
2022-12-20T13:42:33.079Z,43.01
2022-12-20T13:45:18.986Z,43.09
2022-12-20T13:48:11.407Z,43.08
2022-12-20T13:50:58.178Z,43.18
2022-12-20T13:54:07.915Z,43.07
2022-12-20T13:56:54.193Z,43.09
2022-12-20T13:59:39.503Z,43.01
2022-12-20T14:02:30.531Z,43.07
2022-12-20T14:05:21.942Z,43.01
2022-12-20T14:08:14.560Z,42.85
2022-12-20T14:11:13.785Z,43.02
2022-12-20T14:14:04.764Z,43.03
2022-12-20T14:16:50.288Z,42.98
2022-12-20T14:19:35.564Z,42.95
2022-12-20T14:22:20.919Z,42.96
2022-12-20T14:25:08.019Z,42.95
2022-12-20T14:27:53.826Z,43.16
2022-12-20T14:30:45.029Z,43.75
2022-12-20T14:33:40.381Z,44.16
2022-12-20T14:36:25.515Z,43.95
2022-12-20T14:39:26.804Z,43.76
2022-12-20T14:42:13.492Z,43.95
2022-12-20T14:45:03.967Z,43.57
2022-12-20T14:48:03.338Z,43.71
2022-12-20T14:50:53.644Z,43.42
2022-12-20T14:53:40.456Z,43.20
2022-12-20T14:56:31.681Z,43.04
2022-12-20T14:59:24.843Z,43.12
2022-12-20T15:02:35.482Z,43.02
2022-12-20T15:05:45.538Z,42.99
2022-12-20T15:08:37.838Z,42.93
2022-12-20T15:11:24.195Z,43.30
2022-12-20T15:14:30.884Z,43.01
2022-12-20T15:17:16.506Z,42.78
2022-12-20T15:20:01.877Z,42.95
2022-12-20T15:22:47.590Z,42.94
2022-12-20T15:25:42.931Z,42.91
2022-12-20T15:28:28.879Z,42.66
2022-12-20T15:31:16.773Z,42.46
2022-12-20T15:34:15.554Z,42.33
2022-12-20T15:37:02.485Z,42.66
2022-12-20T15:39:47.766Z,42.76
2022-12-20T15:42:33.290Z,42.68
2022-12-20T15:45:18.778Z,42.67
2022-12-20T15:48:04.327Z,42.65
2022-12-20T15:50:58.134Z,42.61
2022-12-20T15:53:43.481Z,42.41
2022-12-20T15:56:29.900Z,42.42
2022-12-20T15:59:48.975Z,42.57
2022-12-20T16:02:27.992Z,42.70
2022-12-20T16:05:14.046Z,42.62
2022-12-20T16:07:59.605Z,42.58
2022-12-20T16:10:46.637Z,42.92
2022-12-20T16:13:32.182Z,43.05
2022-12-20T16:16:19.678Z,42.81
2022-12-20T16:19:05.218Z,42.93
2022-12-20T16:21:52.233Z,42.97
2022-12-20T16:24:37.692Z,42.84
2022-12-20T16:27:22.957Z,42.86
2022-12-20T16:30:08.810Z,43.05
2022-12-20T16:32:54.813Z,42.71
2022-12-20T16:35:40.220Z,42.47
2022-12-20T16:38:25.990Z,42.99
2022-12-20T16:41:17.407Z,43.04
2022-12-20T16:44:04.332Z,43.01
2022-12-20T16:46:49.748Z,42.78
2022-12-20T16:49:37.659Z,42.91
2022-12-20T16:52:24.877Z,42.60
2022-12-20T16:55:15.833Z,42.87
2022-12-20T16:58:01.011Z,43.00
2022-12-20T17:00:46.643Z,42.96
2022-12-20T17:03:33.219Z,43.33
2022-12-20T17:06:18.996Z,43.42
2022-12-20T17:12:25.876Z,43.41
2022-12-20T17:15:23.709Z,44.19
2022-12-20T17:18:09.729Z,44.63
2022-12-20T17:20:55.744Z,44.54
2022-12-20T17:23:44.066Z,44.36
2022-12-20T17:26:34.442Z,44.29
2022-12-20T17:29:20.614Z,43.94
2022-12-20T17:32:19.918Z,43.82
2022-12-20T17:35:08.471Z,43.37
2022-12-20T17:37:56.253Z,42.98
2022-12-20T17:40:42.064Z,42.47
2022-12-20T17:43:30.921Z,42.34
2022-12-20T17:46:16.943Z,42.67
2022-12-20T17:49:02.429Z,41.93
2022-12-20T17:51:47.945Z,41.55
2022-12-20T17:54:39.541Z,41.41
2022-12-20T17:57:25.698Z,41.45
2022-12-20T18:00:22.360Z,41.28
2022-12-20T18:03:07.805Z,41.32
2022-12-20T18:05:53.949Z,41.04
2022-12-20T18:08:39.390Z,41.45
2022-12-20T18:11:27.496Z,41.50
2022-12-20T18:14:13.850Z,41.00
2022-12-20T18:16:59.354Z,40.75
2022-12-20T18:19:45.677Z,41.16
2022-12-20T18:22:33.895Z,41.01
2022-12-20T18:25:19.603Z,41.16
2022-12-20T18:28:05.013Z,40.97
2022-12-20T18:30:50.611Z,41.11
2022-12-20T18:33:36.518Z,41.15
2022-12-20T18:36:24.913Z,41.11
2022-12-20T18:39:13.017Z,40.76
2022-12-20T18:41:58.243Z,40.82
2022-12-20T18:44:43.417Z,40.79
2022-12-20T18:47:32.545Z,40.71
2022-12-20T18:50:18.732Z,40.66
2022-12-20T18:53:04.167Z,40.93
2022-12-20T18:55:49.569Z,40.93
2022-12-20T18:58:36.537Z,40.76
2022-12-20T19:01:26.906Z,40.85
2022-12-20T19:04:12.388Z,40.51
2022-12-20T19:06:57.702Z,40.88
2022-12-20T19:09:43.047Z,40.69
2022-12-20T19:12:29.939Z,40.96
2022-12-20T19:15:15.336Z,40.82
2022-12-20T19:18:00.812Z,41.16
2022-12-20T19:20:46.133Z,41.00
2022-12-20T19:24:57.100Z,40.61
2022-12-20T19:27:43.356Z,40.77
2022-12-20T19:30:30.123Z,40.93
2022-12-20T19:33:15.753Z,40.67
2022-12-20T19:36:08.634Z,40.64
2022-12-20T19:38:57.156Z,40.67
2022-12-20T19:41:42.881Z,40.03
2022-12-20T19:44:28.263Z,40.39
2022-12-20T19:47:13.672Z,40.69
2022-12-20T19:49:59.613Z,40.75
2022-12-20T19:52:45.472Z,41.39
2022-12-20T19:55:31.617Z,41.21
2022-12-20T19:58:17.273Z,41.30
2022-12-20T20:01:04.627Z,41.58
2022-12-20T20:03:50.201Z,41.55
2022-12-20T20:06:36.344Z,41.66
2022-12-20T20:09:21.842Z,42.00
2022-12-20T20:12:07.532Z,41.87
2022-12-20T20:14:53.134Z,41.92
2022-12-20T20:17:38.804Z,41.93
2022-12-20T20:20:24.251Z,41.90
2022-12-20T20:23:09.923Z,42.02
2022-12-20T20:25:56.978Z,42.11
2022-12-20T20:28:44.919Z,42.07
2022-12-20T20:31:30.748Z,42.30
2022-12-20T20:34:16.437Z,42.26
2022-12-20T20:37:01.743Z,42.39
2022-12-20T20:39:47.935Z,42.56
2022-12-20T20:42:33.487Z,42.38
2022-12-20T20:45:18.756Z,42.42
2022-12-20T20:48:06.093Z,42.40
2022-12-20T20:50:51.355Z,42.58
2022-12-20T20:53:36.791Z,42.97
2022-12-20T20:56:22.127Z,43.59
2022-12-20T20:59:11.874Z,43.52
2022-12-20T21:02:03.180Z,43.28
2022-12-20T21:05:16.658Z,43.33
2022-12-20T21:07:54.364Z,43.44
2022-12-20T21:10:39.834Z,43.33
2022-12-20T21:13:25.142Z,43.13
2022-12-20T21:16:14.389Z,43.27
2022-12-20T21:18:59.928Z,43.09
2022-12-20T21:21:45.182Z,43.41
2022-12-20T21:24:30.615Z,43.05
2022-12-20T21:27:15.960Z,43.35
2022-12-20T21:30:01.364Z,43.60
2022-12-20T21:32:46.655Z,43.37
2022-12-20T21:35:32.119Z,43.46
2022-12-20T21:38:17.431Z,43.53
2022-12-20T21:41:08.295Z,43.52
2022-12-20T21:43:58.543Z,43.56
2022-12-20T21:46:44.151Z,43.42
2022-12-20T21:49:30.012Z,43.50
2022-12-20T21:52:15.308Z,43.61
2022-12-20T21:55:00.724Z,43.48
2022-12-20T21:57:48.075Z,43.48
2022-12-20T22:00:33.416Z,43.33
2022-12-20T22:03:19.869Z,43.35
2022-12-20T22:06:05.255Z,43.40
2022-12-20T22:08:50.875Z,43.49
2022-12-20T22:11:36.481Z,43.52
2022-12-20T22:14:22.010Z,43.64
2022-12-20T22:17:07.312Z,43.62
2022-12-20T22:19:52.517Z,43.70
2022-12-20T22:22:38.004Z,43.62
2022-12-20T22:25:23.551Z,43.61
2022-12-20T22:28:09.363Z,43.44
2022-12-20T22:36:36.700Z,43.28
2022-12-20T22:39:21.291Z,43.40
2022-12-20T22:42:05.663Z,43.57
2022-12-20T22:44:50.258Z,43.31
2022-12-20T22:47:35.426Z,43.41
2022-12-20T22:50:20.645Z,43.51
2022-12-20T22:53:05.878Z,43.20
2022-12-20T22:55:51.989Z,43.15
2022-12-20T22:58:38.563Z,43.16
2022-12-20T23:01:24.979Z,43.11
2022-12-20T23:04:10.657Z,43.22
2022-12-20T23:06:55.989Z,43.20
2022-12-20T23:09:41.270Z,43.22
2022-12-20T23:12:45.125Z,43.20
2022-12-20T23:15:42.753Z,43.17
2022-12-20T23:18:28.175Z,43.25
2022-12-20T23:21:32.061Z,43.32
2022-12-20T23:24:17.415Z,43.47
2022-12-20T23:27:02.781Z,43.34
2022-12-20T23:29:48.152Z,43.42
2022-12-20T23:32:33.515Z,43.52
2022-12-20T23:35:20.303Z,43.31
2022-12-20T23:38:05.972Z,43.55
2022-12-20T23:40:51.309Z,43.44
2022-12-20T23:43:37.031Z,43.56
2022-12-20T23:46:22.372Z,43.59
2022-12-20T23:49:07.520Z,43.50
2022-12-20T23:51:52.728Z,43.54
2022-12-20T23:54:37.978Z,43.56
2022-12-20T23:57:23.403Z,43.58
